Time;durP1;ratioP1;P1;durP2;ratioP2;P2;SDS_P1;SDS_P2;PMS_P1;PMS_P2;Temp;Humidity;BMP_temperature;BMP_pressure;BME280_temperature;BME280_humidity;BME280_pressure;Samples;Min_cycle;Max_cycle;Signal;HPM_P1;HPM_P2
2023/09/20 00:01:08;;;;;;;;;;;17.00;99.90;;;;;;5055943;28;19928;-80
2023/09/20 00:03:35;;;;;;;;;;;17.00;99.90;;;;;;5054916;28;20590;-80
2023/09/20 00:06:09;;;;;;;;;;;17.00;99.90;;;;;;5054602;28;20024;-80
2023/09/20 00:08:36;;;;;;;;;;;17.00;99.90;;;;;;5063541;28;19931;-80
2023/09/20 00:11:05;;;;;;;;;;;17.00;99.90;;;;;;5063472;28;20308;-80
2023/09/20 00:13:32;;;;;;;;;;;17.00;99.90;;;;;;5055552;28;19971;-80
2023/09/20 00:16:00;;;;;;;;;;;17.00;99.90;;;;;;5060124;28;19968;-80
2023/09/20 00:18:30;;;;;;;;;;;17.00;99.90;;;;;;5064179;28;19924;-80
2023/09/20 00:21:01;;;;;;;;;;;16.90;99.90;;;;;;5058402;28;19932;-80
2023/09/20 00:23:28;;;;;;;;;;;16.90;99.90;;;;;;5071771;28;19931;-80
2023/09/20 00:25:55;;;;;;;;;;;16.90;99.90;;;;;;5067215;28;19925;-81
2023/09/20 00:28:21;;;;;;;;;;;16.90;99.90;;;;;;5062185;28;19928;-80
2023/09/20 00:30:48;;;;;;;;;;;16.90;99.90;;;;;;5061553;28;19924;-80
2023/09/20 00:33:15;;;;;;;;;;;16.90;99.90;;;;;;5065838;28;19947;-80
2023/09/20 00:35:41;;;;;;;;;;;16.90;99.90;;;;;;5063511;28;19929;-80
2023/09/20 00:38:08;;;;;;;;;;;16.90;99.90;;;;;;5067905;28;20446;-80
2023/09/20 00:40:37;;;;;;;;;;;16.80;99.90;;;;;;5070160;28;19925;-80
2023/09/20 00:43:06;;;;;;;;;;;16.80;99.90;;;;;;5057710;28;19925;-80
2023/09/20 00:45:33;;;;;;;;;;;16.80;99.90;;;;;;5055004;28;19925;-80
2023/09/20 00:48:02;;;;;;;;;;;16.80;99.90;;;;;;5066200;28;19952;-80
2023/09/20 00:50:31;;;;;;;;;;;16.80;99.90;;;;;;5043934;28;19931;-80
2023/09/20 00:53:05;;;;;;;;;;;16.80;99.90;;;;;;5069744;28;19929;-80
2023/09/20 00:55:33;;;;;;;;;;;16.80;99.90;;;;;;5059470;28;19925;-80
2023/09/20 00:58:12;;;;;;;;;;;16.80;99.90;;;;;;5059889;28;19944;-81
2023/09/20 01:00:40;;;;;;;;;;;16.70;99.90;;;;;;5055263;28;20000;-80
2023/09/20 01:03:07;;;;;;;;;;;16.70;99.90;;;;;;5066330;28;20326;-80
2023/09/20 01:05:36;;;;;;;;;;;16.70;99.90;;;;;;5061451;28;19929;-80
2023/09/20 01:08:06;;;;;;;;;;;16.70;99.90;;;;;;5062621;28;20269;-80
2023/09/20 01:10:36;;;;;;;;;;;16.70;99.90;;;;;;5063652;28;19978;-81
2023/09/20 01:13:04;;;;;;;;;;;16.60;99.90;;;;;;5058696;28;19925;-80
2023/09/20 01:15:33;;;;;;;;;;;16.60;99.90;;;;;;5061308;28;19944;-80
2023/09/20 01:17:59;;;;;;;;;;;16.60;99.90;;;;;;5065871;28;19988;-80
2023/09/20 01:20:27;;;;;;;;;;;16.60;99.90;;;;;;5059596;28;20245;-81
2023/09/20 01:22:56;;;;;;;;;;;16.60;99.90;;;;;;5061081;28;19929;-80
2023/09/20 01:25:26;;;;;;;;;;;16.50;99.90;;;;;;5047472;28;19925;-80
2023/09/20 01:27:56;;;;;;;;;;;16.50;99.90;;;;;;5060984;28;19924;-80
2023/09/20 01:30:25;;;;;;;;;;;16.50;99.90;;;;;;5058685;28;19994;-80
2023/09/20 01:32:53;;;;;;;;;;;16.50;99.90;;;;;;5064024;28;20284;-80
2023/09/20 01:35:21;;;;;;;;;;;16.50;99.90;;;;;;5063662;28;20449;-80
2023/09/20 01:37:49;;;;;;;;;;;16.50;99.90;;;;;;5061918;28;19925;-80
2023/09/20 01:40:16;;;;;;;;;;;16.50;99.90;;;;;;5058896;28;19925;-80
2023/09/20 01:42:43;;;;;;;;;;;16.50;99.90;;;;;;5061314;28;19925;-80
2023/09/20 01:45:16;;;;;;;;;;;16.40;99.90;;;;;;5061325;28;19929;-80
2023/09/20 01:47:44;;;;;;;;;;;16.40;99.90;;;;;;5064613;28;19924;-80
2023/09/20 01:50:12;;;;;;;;;;;16.40;99.90;;;;;;5063320;28;20378;-80
2023/09/20 01:52:39;;;;;;;;;;;16.40;99.90;;;;;;5034631;28;19925;-80
2023/09/20 01:55:08;;;;;;;;;;;16.40;99.90;;;;;;5054484;28;19978;-80
2023/09/20 01:57:35;;;;;;;;;;;16.40;99.90;;;;;;5060201;28;19976;-79
2023/09/20 02:00:16;;;;;;;;;;;16.40;99.90;;;;;;5058670;28;19931;-80
2023/09/20 02:02:46;;;;;;;;;;;16.30;99.90;;;;;;5062358;28;19924;-80
2023/09/20 02:05:17;;;;;;;;;;;16.30;99.90;;;;;;5063461;28;19935;-80
2023/09/20 02:07:47;;;;;;;;;;;16.30;99.90;;;;;;5053653;28;19925;-80
2023/09/20 02:10:16;;;;;;;;;;;16.30;99.90;;;;;;5061488;28;19964;-80
2023/09/20 02:12:44;;;;;;;;;;;16.30;99.90;;;;;;5039431;28;19925;-80
2023/09/20 02:15:10;;;;;;;;;;;16.20;99.90;;;;;;5067874;28;19984;-79
2023/09/20 02:17:38;;;;;;;;;;;16.30;99.90;;;;;;5074941;28;19932;-80
2023/09/20 02:20:11;;;;;;;;;;;16.30;99.90;;;;;;5064686;28;19992;-81
2023/09/20 02:22:38;;;;;;;;;;;16.30;99.90;;;;;;5056325;28;19924;-80
2023/09/20 02:25:10;;;;;;;;;;;16.20;99.90;;;;;;5055447;28;19925;-80
2023/09/20 02:27:42;;;;;;;;;;;16.20;99.90;;;;;;5061526;28;19924;-80
2023/09/20 02:30:11;;;;;;;;;;;16.20;99.90;;;;;;5056686;28;19978;-80
2023/09/20 02:32:37;;;;;;;;;;;16.20;99.90;;;;;;5064905;28;19964;-79
2023/09/20 02:35:04;;;;;;;;;;;16.20;99.90;;;;;;5063240;28;20003;-80
2023/09/20 02:37:31;;;;;;;;;;;16.20;99.90;;;;;;5052882;28;19929;-80
2023/09/20 02:39:58;;;;;;;;;;;16.10;99.90;;;;;;5059082;28;19971;-80
2023/09/20 02:42:26;;;;;;;;;;;16.10;99.90;;;;;;5062465;28;19959;-80
2023/09/20 02:44:53;;;;;;;;;;;16.10;99.90;;;;;;5057807;28;20300;-80
2023/09/20 02:47:24;;;;;;;;;;;16.10;99.90;;;;;;5063491;28;20380;-80
2023/09/20 02:49:51;;;;;;;;;;;16.00;99.90;;;;;;5064411;28;20026;-80
2023/09/20 02:52:17;;;;;;;;;;;16.10;99.90;;;;;;5055750;28;19925;-80
2023/09/20 02:54:44;;;;;;;;;;;16.00;99.90;;;;;;5057775;28;19949;-80
2023/09/20 02:57:11;;;;;;;;;;;16.10;99.90;;;;;;5064358;28;19925;-80
2023/09/20 02:59:38;;;;;;;;;;;16.00;99.90;;;;;;5058714;28;19929;-80
2023/09/20 03:02:05;;;;;;;;;;;16.00;99.90;;;;;;5063123;28;20457;-80
2023/09/20 03:04:32;;;;;;;;;;;16.00;99.90;;;;;;5045304;28;19931;-80
2023/09/20 03:07:01;;;;;;;;;;;16.00;99.90;;;;;;5059450;28;19932;-80
2023/09/20 03:09:32;;;;;;;;;;;16.00;99.90;;;;;;5062627;28;19924;-80
2023/09/20 03:11:59;;;;;;;;;;;16.00;99.90;;;;;;5064613;28;20461;-80
2023/09/20 03:14:25;;;;;;;;;;;16.00;99.90;;;;;;5040509;28;19964;-80
2023/09/20 03:16:52;;;;;;;;;;;16.00;99.90;;;;;;5067704;28;19924;-80
2023/09/20 03:19:20;;;;;;;;;;;16.00;99.90;;;;;;5061645;28;19956;-80
2023/09/20 03:21:47;;;;;;;;;;;16.00;99.90;;;;;;5057709;28;20540;-80
2023/09/20 03:24:14;;;;;;;;;;;16.00;99.90;;;;;;5062320;28;20410;-80
2023/09/20 03:26:42;;;;;;;;;;;16.00;99.90;;;;;;5045657;28;19929;-80
2023/09/20 03:29:08;;;;;;;;;;;15.90;99.90;;;;;;5038467;28;19925;-80
2023/09/20 03:31:35;;;;;;;;;;;15.90;99.90;;;;;;5064079;28;19929;-80
2023/09/20 03:34:03;;;;;;;;;;;15.90;99.90;;;;;;5056571;28;19924;-80
2023/09/20 03:36:32;;;;;;;;;;;15.90;99.90;;;;;;5056742;28;19985;-80
2023/09/20 03:38:59;;;;;;;;;;;15.90;99.90;;;;;;5061381;28;19964;-80
2023/09/20 03:41:26;;;;;;;;;;;15.80;99.90;;;;;;5064715;28;20334;-80
2023/09/20 03:43:52;;;;;;;;;;;15.80;99.90;;;;;;5062138;28;19971;-80
2023/09/20 03:46:19;;;;;;;;;;;15.80;99.90;;;;;;5061991;28;19956;-80
2023/09/20 03:48:46;;;;;;;;;;;15.80;99.90;;;;;;5053806;28;19932;-80
2023/09/20 03:51:15;;;;;;;;;;;15.80;99.90;;;;;;5058962;28;19971;-80
2023/09/20 03:53:42;;;;;;;;;;;15.80;99.90;;;;;;5051762;28;19925;-80
2023/09/20 03:56:11;;;;;;;;;;;15.80;99.90;;;;;;5066254;28;19947;-80
2023/09/20 03:58:38;;;;;;;;;;;15.70;99.90;;;;;;5061620;28;20384;-81
2023/09/20 04:01:05;;;;;;;;;;;15.70;99.90;;;;;;5061630;28;20397;-81
2023/09/20 04:03:34;;;;;;;;;;;15.70;99.90;;;;;;5057521;28;19925;-80
2023/09/20 04:06:02;;;;;;;;;;;15.60;99.90;;;;;;5061780;28;20279;-80
2023/09/20 04:08:29;;;;;;;;;;;15.60;99.90;;;;;;5056012;28;19924;-80
2023/09/20 04:10:59;;;;;;;;;;;15.60;99.90;;;;;;5068117;28;19924;-80
2023/09/20 04:13:26;;;;;;;;;;;15.60;99.90;;;;;;5059719;28;19925;-81
2023/09/20 04:15:52;;;;;;;;;;;15.60;99.90;;;;;;5040093;28;19927;-80
2023/09/20 04:18:19;;;;;;;;;;;15.60;99.90;;;;;;5060001;28;19940;-80
2023/09/20 04:20:49;;;;;;;;;;;15.60;99.90;;;;;;5061744;28;19932;-80
2023/09/20 04:23:19;;;;;;;;;;;15.60;99.90;;;;;;5056788;28;20015;-80
2023/09/20 04:25:46;;;;;;;;;;;15.60;99.90;;;;;;5068384;28;19925;-80
2023/09/20 04:28:13;;;;;;;;;;;15.50;99.90;;;;;;5062113;28;19978;-80
2023/09/20 04:30:40;;;;;;;;;;;15.50;99.90;;;;;;5055888;28;19925;-80
2023/09/20 04:33:07;;;;;;;;;;;15.50;99.90;;;;;;5058882;28;19929;-80
2023/09/20 04:35:34;;;;;;;;;;;15.50;99.90;;;;;;5059529;28;19924;-80
2023/09/20 04:38:01;;;;;;;;;;;15.50;99.90;;;;;;5055245;28;19929;-80
2023/09/20 04:40:27;;;;;;;;;;;15.50;99.90;;;;;;5066678;28;19931;-80
2023/09/20 04:42:54;;;;;;;;;;;15.50;99.90;;;;;;5062202;28;19970;-81
2023/09/20 04:45:22;;;;;;;;;;;15.50;99.90;;;;;;5035296;28;19975;-80
2023/09/20 04:47:49;;;;;;;;;;;15.50;99.90;;;;;;5062735;28;19975;-80
2023/09/20 04:50:16;;;;;;;;;;;15.50;99.90;;;;;;5062072;28;20007;-80
2023/09/20 04:52:45;;;;;;;;;;;15.50;99.90;;;;;;5055607;28;19929;-80
2023/09/20 04:55:12;;;;;;;;;;;15.50;99.90;;;;;;5065145;28;19929;-81
2023/09/20 04:57:38;;;;;;;;;;;15.50;99.90;;;;;;5065177;28;19925;-80
2023/09/20 05:00:07;;;;;;;;;;;15.50;99.90;;;;;;5055824;28;19924;-80
2023/09/20 05:02:34;;;;;;;;;;;15.50;99.90;;;;;;5061606;28;19925;-80
2023/09/20 05:05:01;;;;;;;;;;;15.50;99.90;;;;;;5065985;28;19932;-80
2023/09/20 05:07:28;;;;;;;;;;;15.50;99.90;;;;;;5062767;28;19946;-80
2023/09/20 05:09:55;;;;;;;;;;;15.50;99.90;;;;;;5064486;28;19989;-80
2023/09/20 05:12:21;;;;;;;;;;;15.50;99.90;;;;;;5069762;28;19989;-80
2023/09/20 05:14:49;;;;;;;;;;;15.50;99.90;;;;;;5067571;28;19935;-80
2023/09/20 05:17:16;;;;;;;;;;;15.60;99.90;;;;;;5072582;28;19924;-80
2023/09/20 05:19:43;;;;;;;;;;;15.60;99.90;;;;;;5066136;28;19931;-80
2023/09/20 05:22:09;;;;;;;;;;;15.60;99.90;;;;;;5064177;28;19925;-80
2023/09/20 05:24:36;;;;;;;;;;;15.60;99.90;;;;;;5045471;28;19924;-80
2023/09/20 05:27:03;;;;;;;;;;;15.60;99.90;;;;;;5068438;28;19933;-79
2023/09/20 05:29:29;;;;;;;;;;;15.60;99.90;;;;;;5058951;28;19951;-80
2023/09/20 05:31:56;;;;;;;;;;;15.60;99.90;;;;;;5059857;28;20305;-80
2023/09/20 05:34:22;;;;;;;;;;;15.60;99.90;;;;;;5065564;28;19957;-80
2023/09/20 05:36:52;;;;;;;;;;;15.60;99.90;;;;;;5062167;28;19976;-79
2023/09/20 05:39:19;;;;;;;;;;;15.70;99.90;;;;;;5061889;28;20380;-79
2023/09/20 05:41:45;;;;;;;;;;;15.70;99.90;;;;;;5063099;28;19994;-79
2023/09/20 05:44:13;;;;;;;;;;;15.70;99.90;;;;;;5062008;28;20018;-79
2023/09/20 05:46:40;;;;;;;;;;;15.70;99.90;;;;;;5050928;28;19925;-79
2023/09/20 05:49:06;;;;;;;;;;;15.70;99.90;;;;;;5069456;28;19946;-79
2023/09/20 05:51:33;;;;;;;;;;;15.70;99.90;;;;;;5062607;28;19925;-80
2023/09/20 05:54:00;;;;;;;;;;;15.70;99.90;;;;;;5058953;28;20013;-79
2023/09/20 05:56:26;;;;;;;;;;;15.70;99.90;;;;;;5063635;28;20292;-80
2023/09/20 05:58:53;;;;;;;;;;;15.70;99.90;;;;;;5059003;28;20028;-80
2023/09/20 06:01:20;;;;;;;;;;;15.70;99.90;;;;;;5056818;28;19928;-79
2023/09/20 06:03:47;;;;;;;;;;;15.80;99.90;;;;;;5064025;28;20015;-80
2023/09/20 06:06:14;;;;;;;;;;;15.90;99.90;;;;;;5064868;28;19925;-79
2023/09/20 06:08:42;;;;;;;;;;;16.00;99.90;;;;;;5054536;28;19925;-80
2023/09/20 06:11:10;;;;;;;;;;;16.00;99.90;;;;;;5061386;28;19932;-79
2023/09/20 06:13:38;;;;;;;;;;;16.10;99.90;;;;;;5062480;28;20547;-80
2023/09/20 06:16:08;;;;;;;;;;;16.20;99.90;;;;;;5054403;28;19932;-79
2023/09/20 06:18:35;;;;;;;;;;;16.20;99.90;;;;;;5067857;28;19971;-79
2023/09/20 06:21:08;;;;;;;;;;;16.30;99.90;;;;;;5064210;28;19925;-80
2023/09/20 06:23:36;;;;;;;;;;;16.40;99.90;;;;;;5057982;28;19924;-80
2023/09/20 06:26:03;;;;;;;;;;;16.40;99.90;;;;;;5057753;28;19967;-80
2023/09/20 06:28:31;;;;;;;;;;;16.50;99.90;;;;;;5064285;28;20027;-79
2023/09/20 06:30:59;;;;;;;;;;;16.60;99.90;;;;;;5057860;28;20350;-80
2023/09/20 06:33:25;;;;;;;;;;;16.60;99.90;;;;;;5063334;28;19933;-80
2023/09/20 06:35:55;;;;;;;;;;;16.70;99.90;;;;;;5064149;28;19933;-80
2023/09/20 06:38:23;;;;;;;;;;;16.80;99.90;;;;;;5057772;28;20594;-80
2023/09/20 06:40:51;;;;;;;;;;;16.90;99.90;;;;;;5061324;28;19924;-79
2023/09/20 06:43:18;;;;;;;;;;;16.90;99.90;;;;;;5064899;28;20304;-80
2023/09/20 06:45:49;;;;;;;;;;;17.00;99.90;;;;;;5058793;28;19924;-80
2023/09/20 06:48:22;;;;;;;;;;;17.10;99.90;;;;;;5063481;28;19924;-80
2023/09/20 06:50:54;;;;;;;;;;;17.10;99.90;;;;;;5065820;28;19940;-81
2023/09/20 06:53:24;;;;;;;;;;;17.20;99.90;;;;;;5060109;28;20415;-80
2023/09/20 06:55:51;;;;;;;;;;;17.30;99.90;;;;;;5056162;28;19928;-80
2023/09/20 06:58:21;;;;;;;;;;;17.40;99.90;;;;;;5065201;28;19925;-80
2023/09/20 07:00:50;;;;;;;;;;;17.40;99.90;;;;;;5052302;28;19925;-80
2023/09/20 07:03:18;;;;;;;;;;;17.50;99.90;;;;;;5061954;28;19947;-80
2023/09/20 07:05:45;;;;;;;;;;;17.50;99.90;;;;;;5066076;28;19964;-80
2023/09/20 07:08:12;;;;;;;;;;;17.50;99.90;;;;;;5059029;28;19990;-79
2023/09/20 07:10:41;;;;;;;;;;;17.50;99.90;;;;;;5056807;28;19924;-80
2023/09/20 07:13:10;;;;;;;;;;;17.50;99.90;;;;;;5065065;28;19925;-80
2023/09/20 07:15:37;;;;;;;;;;;17.60;99.90;;;;;;5056639;28;19972;-79
2023/09/20 07:18:13;;;;;;;;;;;17.60;99.90;;;;;;5056874;28;19970;-80
2023/09/20 07:20:41;;;;;;;;;;;17.60;99.90;;;;;;5049216;28;19924;-79
2023/09/20 07:23:12;;;;;;;;;;;17.60;99.90;;;;;;5060092;28;19971;-80
2023/09/20 07:25:40;;;;;;;;;;;17.60;99.90;;;;;;5055941;28;20007;-80
2023/09/20 07:28:07;;;;;;;;;;;17.70;99.90;;;;;;5065966;28;19928;-80
2023/09/20 07:30:39;;;;;;;;;;;17.70;99.90;;;;;;5058094;28;19950;-80
2023/09/20 07:33:21;;;;;;;;;;;17.70;99.90;;;;;;5058857;28;20015;-80
2023/09/20 07:35:54;;;;;;;;;;;17.70;99.90;;;;;;5064070;28;20036;-80
2023/09/20 07:40:50;;;;;;;;;;;17.80;99.90;;;;;;5058331;28;19925;-79
2023/09/20 07:43:18;;;;;;;;;;;17.80;99.90;;;;;;5066125;28;19947;-81
2023/09/20 07:45:54;;;;;;;;;;;17.90;99.90;;;;;;5055825;28;20387;-79
2023/09/20 07:48:22;;;;;;;;;;;17.90;99.90;;;;;;5043676;28;19924;-79
2023/09/20 07:50:49;;;;;;;;;;;17.90;99.90;;;;;;5064395;28;19925;-80
2023/09/20 07:53:16;;;;;;;;;;;17.90;99.90;;;;;;5061366;28;19925;-80
2023/09/20 07:55:44;;;;;;;;;;;18.00;99.90;;;;;;5057024;28;19955;-79
2023/09/20 07:58:14;;;;;;;;;;;18.00;99.90;;;;;;5066396;28;20345;-79
2023/09/20 08:00:42;;;;;;;;;;;18.00;99.90;;;;;;5058874;28;19936;-79
2023/09/20 08:03:09;;;;;;;;;;;18.00;99.90;;;;;;5057979;28;20034;-79
2023/09/20 08:05:37;;;;;;;;;;;18.00;99.90;;;;;;5060089;28;19970;-78
2023/09/20 08:08:05;;;;;;;;;;;18.00;99.90;;;;;;5057973;28;19948;-79
2023/09/20 08:10:33;;;;;;;;;;;18.10;99.90;;;;;;5048739;28;19931;-79
2023/09/20 08:13:00;;;;;;;;;;;18.10;99.90;;;;;;5066679;28;19983;-79
2023/09/20 08:15:27;;;;;;;;;;;18.10;99.90;;;;;;5060944;28;19925;-79
2023/09/20 08:20:39;;;;;;;;;;;18.20;99.90;;;;;;5064667;28;19924;-79
2023/09/20 09:01:47;;;;;;;;;;;19.10;99.90;;;;;;5063284;28;20020;-79
2023/09/20 09:04:17;;;;;;;;;;;19.20;99.90;;;;;;5062911;28;20281;-80
2023/09/20 09:06:44;;;;;;;;;;;19.20;99.90;;;;;;5069374;28;19929;-79
2023/09/20 09:09:10;;;;;;;;;;;19.40;99.90;;;;;;5057965;28;20455;-79
2023/09/20 09:11:44;;;;;;;;;;;19.40;99.90;;;;;;5063211;28;19924;-79
2023/09/20 09:14:11;;;;;;;;;;;19.40;99.90;;;;;;5065941;28;19931;-79
2023/09/20 09:16:38;;;;;;;;;;;19.50;99.90;;;;;;5062928;28;19925;-80
2023/09/20 09:19:07;;;;;;;;;;;19.70;99.90;;;;;;5056630;28;19933;-79
2023/09/20 09:21:35;;;;;;;;;;;19.70;99.90;;;;;;5064066;28;19951;-80
2023/09/20 09:24:01;;;;;;;;;;;19.70;99.90;;;;;;5058787;28;19925;-79
2023/09/20 09:26:28;;;;;;;;;;;19.70;99.90;;;;;;5060870;28;20369;-80
2023/09/20 09:28:55;;;;;;;;;;;19.80;99.90;;;;;;5070134;28;19972;-79
2023/09/20 09:31:21;;;;;;;;;;;19.90;99.90;;;;;;5062121;28;20004;-79
2023/09/20 09:33:48;;;;;;;;;;;19.90;99.90;;;;;;5056292;28;20307;-79
2023/09/20 09:36:15;;;;;;;;;;;19.90;99.90;;;;;;5068312;28;19932;-79
2023/09/20 09:38:42;;;;;;;;;;;20.00;99.90;;;;;;5058799;28;19929;-80
2023/09/20 09:41:09;;;;;;;;;;;20.00;99.90;;;;;;5058032;28;19924;-80
2023/09/20 09:43:36;;;;;;;;;;;20.10;99.90;;;;;;5071150;28;19970;-79
2023/09/20 09:46:08;;;;;;;;;;;20.10;99.90;;;;;;5061076;28;19971;-80
2023/09/20 09:48:37;;;;;;;;;;;20.10;99.90;;;;;;5055879;28;19932;-79
2023/09/20 09:51:05;;;;;;;;;;;20.10;99.90;;;;;;5066891;28;19972;-80
2023/09/20 09:53:32;;;;;;;;;;;20.20;99.90;;;;;;5062555;28;19958;-79
2023/09/20 09:55:59;;;;;;;;;;;20.30;99.90;;;;;;5060326;28;19933;-80
2023/09/20 09:58:27;;;;;;;;;;;20.30;99.90;;;;;;5069209;28;19932;-80
2023/09/20 10:00:54;;;;;;;;;;;20.30;99.90;;;;;;5062974;28;20002;-79
2023/09/20 10:03:21;;;;;;;;;;;20.30;99.90;;;;;;5055545;28;19972;-79
2023/09/20 10:05:48;;;;;;;;;;;20.30;99.90;;;;;;5069389;28;20415;-80
2023/09/20 10:08:18;;;;;;;;;;;20.40;99.90;;;;;;5061719;28;19983;-79
2023/09/20 10:10:44;;;;;;;;;;;20.40;99.90;;;;;;5056857;28;19974;-79
2023/09/20 10:13:14;;;;;;;;;;;20.40;99.90;;;;;;5069491;28;20023;-79
2023/09/20 10:15:43;;;;;;;;;;;20.50;99.90;;;;;;5043529;28;19924;-79
2023/09/20 10:18:10;;;;;;;;;;;20.50;99.90;;;;;;5054207;28;20294;-80
2023/09/20 10:20:58;;;;;;;;;;;20.50;99.90;;;;;;5066119;28;19924;-79
2023/09/20 10:23:26;;;;;;;;;;;20.50;99.90;;;;;;5061097;28;20307;-79
2023/09/20 10:25:55;;;;;;;;;;;20.60;99.90;;;;;;5055879;28;19975;-79
2023/09/20 10:28:24;;;;;;;;;;;20.60;99.90;;;;;;5066957;28;19932;-80
2023/09/20 10:31:01;;;;;;;;;;;20.70;99.90;;;;;;5063720;28;19925;-80
2023/09/20 10:33:40;;;;;;;;;;;20.70;99.90;;;;;;5053832;28;19928;-80
2023/09/20 10:36:10;;;;;;;;;;;20.70;99.90;;;;;;5066147;28;20394;-80
2023/09/20 10:38:39;;;;;;;;;;;20.80;99.90;;;;;;5063480;28;19974;-80
2023/09/20 10:41:10;;;;;;;;;;;20.90;99.90;;;;;;5055865;28;20342;-80
2023/09/20 10:43:37;;;;;;;;;;;20.90;99.90;;;;;;5065092;28;20077;-79
2023/09/20 10:46:09;;;;;;;;;;;20.90;99.90;;;;;;5061027;28;19982;-79
2023/09/20 10:48:40;;;;;;;;;;;21.00;99.90;;;;;;5053453;28;19951;-79
2023/09/20 10:51:07;;;;;;;;;;;21.00;99.90;;;;;;5067940;28;19924;-80
2023/09/20 10:53:43;;;;;;;;;;;21.00;99.90;;;;;;5064433;28;20412;-80
2023/09/20 10:56:11;;;;;;;;;;;21.00;99.90;;;;;;5054856;28;20332;-80
2023/09/20 10:58:42;;;;;;;;;;;21.10;99.90;;;;;;5066048;28;20019;-80
2023/09/20 11:01:11;;;;;;;;;;;21.10;99.90;;;;;;5058599;28;19947;-80
2023/09/20 11:03:39;;;;;;;;;;;21.20;99.90;;;;;;5055082;28;19924;-80
2023/09/20 11:06:06;;;;;;;;;;;21.20;99.90;;;;;;5067598;28;19924;-80
2023/09/20 11:08:34;;;;;;;;;;;21.20;99.90;;;;;;5064404;28;20080;-80
2023/09/20 11:11:02;;;;;;;;;;;21.20;99.90;;;;;;5054504;28;19928;-80
2023/09/20 11:13:29;;;;;;;;;;;21.30;99.90;;;;;;5064004;28;19942;-80
2023/09/20 11:16:00;;;;;;;;;;;21.30;99.90;;;;;;5063447;28;20376;-79
2023/09/20 11:18:26;;;;;;;;;;;21.30;99.90;;;;;;5054884;28;20532;-80
2023/09/20 11:20:53;;;;;;;;;;;21.40;99.90;;;;;;5070301;28;19925;-79
2023/09/20 11:23:20;;;;;;;;;;;21.30;99.90;;;;;;5060221;28;19947;-79
2023/09/20 11:25:48;;;;;;;;;;;21.40;99.90;;;;;;5058990;28;20384;-79
2023/09/20 11:28:17;;;;;;;;;;;21.40;99.90;;;;;;5064799;28;19925;-80
2023/09/20 11:30:48;;;;;;;;;;;21.40;99.90;;;;;;5065375;28;19929;-79
2023/09/20 11:33:24;;;;;;;;;;;21.50;99.90;;;;;;5054434;28;19980;-79
2023/09/20 11:35:51;;;;;;;;;;;21.50;99.90;;;;;;5066573;28;19929;-79
2023/09/20 11:38:21;;;;;;;;;;;21.50;99.90;;;;;;5062876;28;20221;-80
2023/09/20 11:40:47;;;;;;;;;;;21.60;99.90;;;;;;5059035;28;19924;-80
2023/09/20 11:43:20;;;;;;;;;;;21.60;99.90;;;;;;5056541;28;19928;-80
2023/09/20 11:45:50;;;;;;;;;;;21.70;99.90;;;;;;5065765;28;20573;-79
2023/09/20 11:48:27;;;;;;;;;;;21.60;99.90;;;;;;5056630;28;19931;-80
2023/09/20 11:50:54;;;;;;;;;;;21.70;99.90;;;;;;5068019;28;19935;-79
2023/09/20 11:53:21;;;;;;;;;;;21.70;99.90;;;;;;5064500;28;19979;-80
2023/09/20 11:55:48;;;;;;;;;;;21.80;99.90;;;;;;5042687;28;19948;-80
2023/09/20 11:58:21;;;;;;;;;;;21.80;99.90;;;;;;5057657;28;20381;-80
2023/09/20 12:00:49;;;;;;;;;;;21.80;99.90;;;;;;5064948;28;19932;-80
2023/09/20 12:03:16;;;;;;;;;;;21.90;99.90;;;;;;5056588;28;19928;-79
2023/09/20 12:05:43;;;;;;;;;;;21.90;99.90;;;;;;5066508;28;19929;-79
2023/09/20 12:08:10;;;;;;;;;;;21.90;99.90;;;;;;5063469;28;19925;-80
2023/09/20 12:10:37;;;;;;;;;;;21.90;99.90;;;;;;5056452;28;19984;-80
2023/09/20 12:13:03;;;;;;;;;;;22.00;99.90;;;;;;5060493;28;19964;-80
2023/09/20 12:15:32;;;;;;;;;;;21.90;99.90;;;;;;5069119;28;19925;-80
2023/09/20 12:17:59;;;;;;;;;;;22.00;99.90;;;;;;5061278;28;19928;-80
2023/09/20 12:20:26;;;;;;;;;;;22.00;99.90;;;;;;5061872;28;19925;-79
2023/09/20 12:23:01;;;;;;;;;;;22.00;99.90;;;;;;5061784;28;19929;-80
2023/09/20 12:25:30;;;;;;;;;;;22.10;99.90;;;;;;5060758;28;19996;-79
2023/09/20 12:27:58;;;;;;;;;;;22.10;99.90;;;;;;5062331;28;19924;-79
2023/09/20 12:30:27;;;;;;;;;;;22.10;99.90;;;;;;5068738;28;19925;-80
2023/09/20 12:32:56;;;;;;;;;;;22.20;99.90;;;;;;5064387;28;19929;-80
2023/09/20 12:35:24;;;;;;;;;;;22.20;99.90;;;;;;5059048;28;20008;-80
2023/09/20 12:37:51;;;;;;;;;;;22.30;99.90;;;;;;5067549;28;19951;-79
2023/09/20 12:40:21;;;;;;;;;;;22.20;99.90;;;;;;5059691;28;19924;-79
2023/09/20 12:42:48;;;;;;;;;;;22.30;99.90;;;;;;5059889;28;19948;-80
2023/09/20 12:45:15;;;;;;;;;;;22.30;99.90;;;;;;5069737;28;19924;-80
2023/09/20 12:47:44;;;;;;;;;;;22.30;99.90;;;;;;5064072;28;19931;-80
2023/09/20 12:50:12;;;;;;;;;;;22.30;99.90;;;;;;5059568;28;19925;-80
2023/09/20 12:52:42;;;;;;;;;;;22.40;99.90;;;;;;5067454;28;20388;-80
2023/09/20 12:55:13;;;;;;;;;;;22.40;99.90;;;;;;5063018;28;20319;-80
2023/09/20 12:57:41;;;;;;;;;;;22.40;99.90;;;;;;5058736;28;20013;-80
2023/09/20 13:00:14;;;;;;;;;;;22.40;99.90;;;;;;5066792;28;19968;-79
2023/09/20 13:02:56;;;;;;;;;;;22.50;99.90;;;;;;5063164;28;19975;-80
2023/09/20 13:05:23;;;;;;;;;;;22.50;99.90;;;;;;5059477;28;20400;-79
2023/09/20 13:07:49;;;;;;;;;;;22.60;99.90;;;;;;5067832;28;19924;-80
2023/09/20 13:10:17;;;;;;;;;;;22.60;99.90;;;;;;5062317;28;20491;-80
2023/09/20 13:12:43;;;;;;;;;;;22.60;99.90;;;;;;5060027;28;19925;-80
2023/09/20 13:15:14;;;;;;;;;;;22.70;99.90;;;;;;5070320;28;19924;-80
2023/09/20 13:17:43;;;;;;;;;;;22.70;99.90;;;;;;5066171;28;19925;-80
2023/09/20 13:20:14;;;;;;;;;;;22.70;99.90;;;;;;5054984;28;19931;-80
2023/09/20 13:22:52;;;;;;;;;;;22.70;99.90;;;;;;5068845;28;20008;-80
2023/09/20 13:25:19;;;;;;;;;;;22.80;99.90;;;;;;5058675;28;19955;-79
2023/09/20 13:27:49;;;;;;;;;;;22.80;99.90;;;;;;5060473;28;19935;-80
2023/09/20 13:30:17;;;;;;;;;;;22.90;99.90;;;;;;5070299;28;19932;-80
2023/09/20 13:32:47;;;;;;;;;;;22.90;99.90;;;;;;5064610;28;20311;-80
2023/09/20 13:35:17;;;;;;;;;;;22.90;99.90;;;;;;5055443;28;19931;-80
2023/09/20 13:37:46;;;;;;;;;;;22.90;99.90;;;;;;5068624;28;19925;-80
2023/09/20 13:40:18;;;;;;;;;;;22.90;99.90;;;;;;5062145;28;19924;-80
2023/09/20 13:42:45;;;;;;;;;;;23.00;99.90;;;;;;5055800;28;20412;-80
2023/09/20 13:45:13;;;;;;;;;;;23.00;99.90;;;;;;5068905;28;20035;-80
2023/09/20 13:47:41;;;;;;;;;;;23.00;99.90;;;;;;5065089;28;19924;-80
2023/09/20 13:50:09;;;;;;;;;;;23.00;99.90;;;;;;5053834;28;19978;-80
2023/09/20 13:52:36;;;;;;;;;;;23.00;99.90;;;;;;5068925;28;20015;-80
2023/09/20 13:55:05;;;;;;;;;;;23.00;99.90;;;;;;5063963;28;19925;-81
2023/09/20 13:57:36;;;;;;;;;;;23.00;99.90;;;;;;5058363;28;19936;-80
2023/09/20 14:00:09;;;;;;;;;;;23.00;99.90;;;;;;5069119;28;19994;-80
2023/09/20 14:02:37;;;;;;;;;;;23.10;99.90;;;;;;5060729;28;19954;-80
2023/09/20 14:05:13;;;;;;;;;;;23.10;99.90;;;;;;5056369;28;19925;-80
2023/09/20 14:07:45;;;;;;;;;;;23.10;99.90;;;;;;5068442;28;19975;-80
2023/09/20 14:10:12;;;;;;;;;;;23.10;99.90;;;;;;5063386;28;19929;-80
2023/09/20 14:12:41;;;;;;;;;;;23.20;99.90;;;;;;5057904;28;20452;-80
2023/09/20 14:15:10;;;;;;;;;;;23.20;99.90;;;;;;5065536;28;19958;-81
2023/09/20 14:17:37;;;;;;;;;;;23.20;99.90;;;;;;5062575;28;19929;-80
2023/09/20 14:20:09;;;;;;;;;;;23.20;99.90;;;;;;5038936;28;19929;-80
2023/09/20 14:22:37;;;;;;;;;;;23.20;99.90;;;;;;5069526;28;19924;-80
2023/09/20 14:25:05;;;;;;;;;;;23.20;99.90;;;;;;5066673;28;19925;-80
2023/09/20 14:27:31;;;;;;;;;;;23.20;99.90;;;;;;5058591;28;19998;-80
2023/09/20 14:30:00;;;;;;;;;;;23.20;99.90;;;;;;5069192;28;20379;-79
2023/09/20 14:32:28;;;;;;;;;;;23.20;99.90;;;;;;5062331;28;20596;-80
2023/09/20 14:34:57;;;;;;;;;;;23.30;99.90;;;;;;5057216;28;20292;-80
2023/09/20 14:37:26;;;;;;;;;;;23.30;99.90;;;;;;5065019;28;19925;-80
2023/09/20 14:39:56;;;;;;;;;;;23.30;99.90;;;;;;5064950;28;19925;-80
2023/09/20 14:42:25;;;;;;;;;;;23.30;99.90;;;;;;5057313;28;20012;-80
2023/09/20 14:44:52;;;;;;;;;;;23.30;99.90;;;;;;5064916;28;19925;-80
2023/09/20 14:47:20;;;;;;;;;;;23.30;99.90;;;;;;5061000;28;19924;-80
2023/09/20 14:49:47;;;;;;;;;;;23.30;99.90;;;;;;5059289;28;19928;-80
2023/09/20 14:52:14;;;;;;;;;;;23.30;99.90;;;;;;5061295;28;20282;-84
2023/09/20 14:55:18;;;;;;;2.15;1.13;;;23.30;99.90;;;;;;5093165;27;20336;-81
2023/09/20 14:57:51;;;;;;;2.28;1.02;;;23.40;99.90;;;;;;5060077;28;20053;-81
2023/09/20 15:00:21;;;;;;;4.50;1.10;;;23.40;99.90;;;;;;5068273;28;20072;-80
2023/09/20 15:02:50;;;;;;;2.63;1.23;;;23.30;99.90;;;;;;5063805;28;20052;-81
2023/09/20 15:05:18;;;;;;;1.42;1.05;;;23.40;99.90;;;;;;5065818;28;20053;-81
2023/09/20 15:07:53;;;;;;;3.47;1.20;;;23.40;99.90;;;;;;5057466;28;20041;-81